Race Coverage Navigation

TS # 24 / Montezuma, KS  2019

 


TS STATS
TS Distance 50.16 
Total Distance 1444.98 
Miles To Go 1625.3 
TS Climbing 1395 
Total Climbing
TS  Elevation
TS  Net Elevation 2210 
Map Filename Open Map 
Directions Filename  
Latitude 37.6 
Longitude -100.45 
Google Map  TimeStation Map 


TS Arrival Data
Arr Ord  #/Name Arrival DT TS Dst Avg This TS Avg Overall Ascending
 1 605 - Christian Echavarria  06/18/2019 0:32 50.16  11.94  9.5 
 2 161 - Seana Hogan  06/17/2019 22:20 50.16  6.23  9.62 
 3 608 - Elin Starup  06/17/2019 19:12 50.16  11.99  9.82 
 4 539 - Kari Rouvinen  06/17/2019 16:32 50.16  13.32  10.03 
 5 618 - GREGORY ROBINSON  06/17/2019 15:11 50.16  19.29  10.11 
 6 424 - Team i RON man Veterans supporting Veterans  06/17/2019 13:51 50.16  11.85  10.23 
 7 399 - Valerio Zamboni  06/17/2019 11:02 50.16  7.78  10.44 
 8 610 - Kabir Rachure  06/17/2019 4:23 50.16  12.33  10.94 
 9 510 - John C. Tarlton  06/17/2019 1:18 50.16  14.33  11.22 
 10 411 - Geoff Brunner  06/16/2019 23:29 50.16  14.33  11.38 
 11 559 - Team Martin RAAM 2019 (Martin Bergmeister)  06/16/2019 22:12 50.16  13.81  11.49 
 12 442 - Joe Barr  06/16/2019 22:13 50.16  9.26  11.5 
 13 611 - Marcelo Soares " MIXIRICA "  06/16/2019 21:58 50.16  12.23  11.5 
 14 568 - Alexandra Meixner  06/16/2019 19:59 50.16  10.79  11.66 
 15 604 - Chieko Ozawa  06/16/2019 19:53 50.16  15.05  11.67 
 16 615 - Philipp Amhof  06/16/2019 18:16 50.16  16.18  11.84 
 17 603 - Alan Bradley  06/16/2019 16:04 50.16  12.04  12.07 
 18 367 - Daniela Genovesi  06/16/2019 15:27 50.16  19.29  12.11 
 19 623 - Ultra Paka Racing Team (Daniel Polman)  06/16/2019 14:01 50.16  17.81  12.26 
 20 416 - Leah Goldstein  06/16/2019 13:18 50.16  12.39  12.33 
 21 329 - Peter Oyler  06/16/2019 11:33 50.16  17.91  12.57 
 22 622 - Thomas Odom-Team Kyle Pease Foundation  06/16/2019 10:37 50.16  15.92  12.63 
 23 612 - Markus K. Brandl  06/16/2019 5:29 50.16  10.63  13.23 
 24 T205 - Prevent Breast Cancer powered by Endomag  06/20/2019 2:31 50.16  17  13.45 
 25 529 - Isa Pulver  06/16/2019 2:04 50.16  15.12  13.63 
 26 T210 - Bike Wine Team  06/20/2019 0:24 50.16  14.54  13.73 
 27 617 - SOLO.kiwi (Craig Harper)  06/15/2019 23:30 50.16  21.65  13.99 
 28 T203 - JPsDuo  06/19/2019 19:20 50.16  21.65  14.41 
 29 609 - Jakob Olsen  06/15/2019 19:58 50.16  14  14.51 
 30 288 - Dave Haase  06/15/2019 19:51 50.16  15.2  14.56 
 31 T409 - Serpentine Golden Girls  06/19/2019 16:58 50.16  19.05  14.8 
 32 T207 - Team Life Time  06/19/2019 15:08 50.16  18.13  15.05 
 33 279 - Marko Baloh  06/15/2019 16:09 50.16  17  15.13 
 34 T200 - AIR RELAX GoPro TEAM BRASIL  06/19/2019 13:02 50.16  20.61  15.37 
 35 T417 - Team4RAAM 2019 powered by TGW Living Logistics  06/19/2019 11:33 50.16  21.19  15.69 
 36 T801 - Mind Over Matter  06/19/2019 9:39 50.16  20.61  16.03 
 37 T402 - EA/WFP RAAM Team  06/19/2019 8:22 50.16  18.13  16.21 
 38 T806 - Team SuperMarrow  06/19/2019 8:37 50.16  18.35  16.23 
 39 T413 - TEAM BRASIL - SKIPPER  06/19/2019 8:01 50.16  15.84  16.3 
 40 T204 - Lucan CRC  06/19/2019 6:37 50.16  18.46  16.5 
 41 T206 - Project Linear Acceleration  06/19/2019 5:35 50.16  15.84  16.71 
 42 T415 - TEAM FIRE VELO 935  06/19/2019 5:54 50.16  17.2  16.71 
 43 T403 - EKJ Denmark  06/19/2019 5:12 50.16  17  16.81 
 44 T803 - Team EndoPark  06/19/2019 4:51 50.16  18.58  16.94 
 45 377 - Christoph Strasser  06/15/2019 5:54 50.16  10.38  16.95 
 46 T202 - Integra Medical - BAA Racing  06/19/2019 4:01 50.16  16.09  17 
 47 T405 - High Rollers  06/19/2019 4:14 50.16  21.19  17 
 48 T414 - Brazil Nuts  06/19/2019 2:33 50.16  31.03  17.38 
 49 T410 - Soap-Aid  06/19/2019 2:04 50.16  15.51  17.47 
 50 T418 - The Opportunists  06/18/2019 23:53 50.16  17.5  17.97 
 51 T808 - Antonia's Friends 2019  06/18/2019 21:13 50.16  19.42  18.62 
 52 T406 - Operation Walk Midwest  06/18/2019 20:53 50.16  19.67  18.62 
 53 T400 - Cantastic4  06/18/2019 20:29 50.16  18.69  18.69 
 54 T408 - Radeln-fuer-Kinder (Cycling-for-Kids)  06/18/2019 19:14 50.16  23.51  19.03 
 55 T804 - Team FSHD Skyland Trail  06/18/2019 19:17 50.16  22.13  19.08 
 56 T416 - Team Rotary Raams Polio  06/18/2019 18:19 50.16  22.63  19.3 
 57 T412 - Team Aspect  06/18/2019 17:45 50.16  22.13  19.43 
 58 T802 - Scorchers  06/18/2019 17:37 50.16  23.89  19.5 
 59 T407 - Julian Becker   06/18/2019 16:14 50.16  22.29  19.81 
 60 T807 - Team ZOE International  06/18/2019 16:18 50.16  24.08  19.88 
 61 T201 - EAT WELL  06/18/2019 14:55 50.16  22.63  20.1 
 62 T805 - Team Oceanside  06/18/2019 15:13 50.16  24.08  20.17 
 63 T404 - Gentlemen of speed  06/18/2019 10:57 50.16  23.89  21.34 
 64 T401 - Data Techniques powered by Networks Centre  06/18/2019 10:41 50.16  24.67  21.41 
 65 T800 - Backstedt Racing Project 14  06/18/2019 7:43 50.16  24.47  22.5 
 66 T411 - team alpha - tischlerei groemmer  06/18/2019 7:07 50.16  22.8  22.66